Terminal Aerodrome Forecast
Issued by NWS

Home | Current Version | Previous Version | Text Only | Print | Product List | Glossary On
Versions: 1 2 3 4 5 6 7 8 9 10 11 12
000
FTAK31 PAJN 132330
TAFAWG
TAF
PAWG 132330Z 1400/1424 10008KT P6SM OVC040
     FM140400 11011KT 4SM -RA BR SCT015 OVC030
     FM140900 11006KT 2SM -RA BR BKN007 OVC015
     FM141700 11008KT 6SM -RA BR SCT015 OVC025
     FM142000 VRB05KT 4SM -RA BR OVC015
      AMD LTD TO CLD VIS AND WIND 1406/1415=

USA.gov is the U.S. government's official web portal to all federal, state and local government web resources and services.